Flight Track Log - Related Links

Times and Time Zones

All times are in EDT time to prevent confusion due to time zone crossing. See the SKW5510 flight status page for this flight to view local times or setup timezone preferences in your user account.


Time Position Orientation Groundspeed Altitude Reporting Facility
EDT Latitude Longitude Course Direction KTS MPH feet Rate Location/Type
Mon 03:45:00 PM 39.0881 -102.5997 115° Southeast  Level Estimated
Mon 03:46:00 PM 39.0352 -102.4631 116° Southeast  Level Estimated
Mon 03:47:00 PM 38.9822 -102.3267 117° Southeast  Level Estimated
Mon 03:48:00 PM 38.9290 -102.1905 117° Southeast  Level Estimated
Mon 03:49:00 PM 38.8756 -102.0545 117° Southeast  Level Estimated
Mon 03:50:00 PM 38.8221 -101.9187 117° Southeast  Level Estimated
Mon 03:51:00 PM 38.7685 -101.7832 117° Southeast  Level Estimated
Mon 03:52:00 PM 38.7146 -101.6478 117° Southeast  Level Estimated
Mon 03:53:00 PM 38.6607 -101.5126 117° Southeast  Level Estimated
Mon 03:54:00 PM 38.6065 -101.3777 117° Southeast  Level Estimated
Mon 03:55:00 PM 38.5522 -101.2429 117° Southeast  Level Estimated
Mon 03:56:00 PM 38.4978 -101.1084 117° Southeast  Level Estimated
Mon 03:57:00 PM 38.4432 -100.9740 117° Southeast  Level Estimated
Mon 03:58:00 PM 38.3885 -100.8399 117° Southeast  Level Estimated
Mon 03:59:00 PM 38.3336 -100.7059 118° Southeast  Level Estimated
Mon 04:00:00 PM 38.2785 -100.5722 118° Southeast  Level Estimated
Mon 04:01:00 PM 38.2233 -100.4386 118° Southeast  Level Estimated
Mon 04:02:00 PM 38.1680 -100.3053 118° Southeast  Level Estimated
Mon 04:03:00 PM 38.1125 -100.1722 118° Southeast  Level Estimated
Mon 04:04:00 PM 38.0568 -100.0393 118° Southeast  Level Estimated
Mon 04:05:00 PM 38.0010 -99.9065 118° Southeast  Level Estimated
Mon 04:06:00 PM 37.9451 -99.7740 118° Southeast  Level Estimated
Mon 04:07:00 PM 37.8890 -99.6417 118° Southeast  Level Estimated
Mon 04:08:00 PM 37.8327 -99.5096 118° Southeast  Level Estimated
Mon 04:09:00 PM 37.7763 -99.3776 118° Southeast  Level Estimated
Mon 04:10:00 PM 37.7198 -99.2459 118° Southeast  Level Estimated
Mon 04:11:00 PM 37.6631 -99.1144 119° Southeast  Level Estimated
Mon 04:12:00 PM 37.6063 -98.9831 119° Southeast  Level Estimated
Mon 04:13:00 PM 37.5493 -98.8520 119° Southeast  Level Estimated
Mon 04:14:00 PM 37.4922 -98.7210 119° Southeast  Level Estimated
Mon 04:15:00 PM 37.4349 -98.5903 119° Southeast  Level Estimated
Mon 04:16:00 PM 37.3775 -98.4598 119° Southeast  Level Estimated
Mon 04:17:00 PM 37.3199 -98.3295 119° Southeast  Level Estimated
Mon 04:18:00 PM 37.2622 -98.1994 119° Southeast  Level Estimated
Mon 04:19:00 PM 37.2044 -98.0695 119° Southeast  Level Estimated
Mon 04:20:00 PM 37.1464 -97.9398 119° Southeast  Level Estimated
Mon 04:21:00 PM 37.0883 -97.8102 119° Southeast  Level Estimated
Mon 04:22:00 PM 37.0300 -97.6809 119° Southeast  Level Estimated
Mon 04:23:00 PM 36.9716 -97.5518 119° Southeast  Level Estimated
Mon 04:24:00 PM 36.9131 -97.4229 120° Southeast  Level Estimated
Mon 04:25:00 PM 36.8544 -97.2942 120° Southeast  Level Estimated
Mon 04:26:00 PM 36.7956 -97.1656 120° Southeast  Level Estimated
Mon 04:27:00 PM 36.7366 -97.0373 120° Southeast  Level Estimated
Mon 04:28:00 PM 36.6775 -96.9092 120° Southeast  Level Estimated
Mon 04:29:00 PM 36.6183 -96.7812 120° Southeast  Level Estimated
Mon 04:30:00 PM 36.5589 -96.6535 120° Southeast  Level Estimated
Mon 04:31:00 PM 36.4994 -96.5260 120° Southeast  Level Estimated
Mon 04:32:00 PM 36.4398 -96.3986 120° Southeast  Level Estimated
Mon 04:33:00 PM 36.3800 -96.2715 120° Southeast  Level Estimated
Mon 04:34:00 PM 36.3201 -96.1445 120° Southeast  Level Estimated
Mon 04:35:00 PM 36.2600 -96.0178 120° Southeast  Level Estimated
Mon 04:36:00 PM 36.1999 -95.8912 120° Southeast  Level Estimated
Mon 04:37:00 PM 36.1984 -95.8881 120° Southeast  Level Estimated
Mon 04:38:00 PM 36.1984 -95.8881 219° Southwest  Level Estimated
Mon 04:39:00 PM 36.1984 -95.8881 219° Southwest  Level Estimated
Mon 04:40:00 PM 36.1984 -95.8881 219° Southwest  Level Estimated
Mon 04:41:00 PM 36.1984 -95.8881 219° Southwest  Level Estimated
Mon 04:42:00 PM 36.1984 -95.8881 219° Southwest  Level Estimated
Mon 04:43:00 PM 36.1984 -95.8881 219° Southwest  Level Estimated
Mon 04:44:00 PM 36.1984 -95.8881 219° Southwest  Level Estimated
Mon 04:45:00 PM 36.1984 -95.8881 219° Southwest  Level Estimated
Mon 04:46:00 PM 36.1984 -95.8881 219° Southwest  Level Estimated
Mon 04:47:00 PM 36.1984 -95.8881 219° Southwest  Level Estimated
Mon 04:48:00 PM 36.1984 -95.8881 219° Southwest  Level Estimated
Mon 04:49:00 PM 36.1984 -95.8881 219° Southwest  Level Estimated
Mon 04:50:00 PM 36.1984 -95.8881 219° Southwest  Level Estimated

Login

Don't have an account? Register now (free) for customized features, flight alerts, and more!